sensor_id;sensor_type;location;lat;lon;timestamp;temperature;humidity
6256;DHT22;3161;48.794;9.784;2023-02-28T00:01:26;-0.30;94.30
6256;DHT22;3161;48.794;9.784;2023-02-28T00:03:54;-0.30;94.00
6256;DHT22;3161;48.794;9.784;2023-02-28T00:06:22;-0.30;94.00
6256;DHT22;3161;48.794;9.784;2023-02-28T00:08:50;-0.20;94.30
6256;DHT22;3161;48.794;9.784;2023-02-28T00:11:18;-0.20;93.90
6256;DHT22;3161;48.794;9.784;2023-02-28T00:13:47;-0.20;94.60
6256;DHT22;3161;48.794;9.784;2023-02-28T00:16:20;-0.20;94.70
6256;DHT22;3161;48.794;9.784;2023-02-28T00:18:48;-0.20;94.80
6256;DHT22;3161;48.794;9.784;2023-02-28T00:21:18;-0.10;95.00
6256;DHT22;3161;48.794;9.784;2023-02-28T00:23:46;-0.10;94.80
6256;DHT22;3161;48.794;9.784;2023-02-28T00:26:14;-0.10;95.20
6256;DHT22;3161;48.794;9.784;2023-02-28T00:28:41;-0.10;94.90
6256;DHT22;3161;48.794;9.784;2023-02-28T00:31:09;-0.10;95.30
6256;DHT22;3161;48.794;9.784;2023-02-28T00:33:36;-0.10;95.30
6256;DHT22;3161;48.794;9.784;2023-02-28T00:36:09;-0.10;95.40
6256;DHT22;3161;48.794;9.784;2023-02-28T00:38:37;-0.10;95.20
6256;DHT22;3161;48.794;9.784;2023-02-28T00:41:05;0.00;95.80
6256;DHT22;3161;48.794;9.784;2023-02-28T00:43:37;0.00;95.90
6256;DHT22;3161;48.794;9.784;2023-02-28T00:46:05;0.00;95.60
6256;DHT22;3161;48.794;9.784;2023-02-28T00:48:34;0.00;96.10
6256;DHT22;3161;48.794;9.784;2023-02-28T00:51:01;0.00;96.20
6256;DHT22;3161;48.794;9.784;2023-02-28T00:53:29;0.00;96.20
6256;DHT22;3161;48.794;9.784;2023-02-28T00:55:59;0.00;96.50
6256;DHT22;3161;48.794;9.784;2023-02-28T00:58:27;0.00;96.50
6256;DHT22;3161;48.794;9.784;2023-02-28T01:00:55;-0.10;96.80
6256;DHT22;3161;48.794;9.784;2023-02-28T01:03:23;-0.10;96.60
6256;DHT22;3161;48.794;9.784;2023-02-28T01:05:51;-0.10;96.80
6256;DHT22;3161;48.794;9.784;2023-02-28T01:08:19;-0.10;97.30
6256;DHT22;3161;48.794;9.784;2023-02-28T01:10:47;-0.10;97.70
6256;DHT22;3161;48.794;9.784;2023-02-28T01:13:15;-0.10;97.50
6256;DHT22;3161;48.794;9.784;2023-02-28T01:15:51;-0.10;97.90
6256;DHT22;3161;48.794;9.784;2023-02-28T01:18:19;-0.10;97.80
6256;DHT22;3161;48.794;9.784;2023-02-28T01:20:47;-0.10;98.20
6256;DHT22;3161;48.794;9.784;2023-02-28T01:23:15;-0.10;98.20
6256;DHT22;3161;48.794;9.784;2023-02-28T01:25:42;-0.10;98.40
6256;DHT22;3161;48.794;9.784;2023-02-28T01:28:10;-0.10;98.30
6256;DHT22;3161;48.794;9.784;2023-02-28T01:30:37;-0.10;98.70
6256;DHT22;3161;48.794;9.784;2023-02-28T01:33:05;-0.10;98.40
6256;DHT22;3161;48.794;9.784;2023-02-28T01:35:34;-0.10;98.70
6256;DHT22;3161;48.794;9.784;2023-02-28T01:38:02;-0.10;99.10
6256;DHT22;3161;48.794;9.784;2023-02-28T01:40:30;-0.10;98.90
6256;DHT22;3161;48.794;9.784;2023-02-28T01:42:57;-0.10;99.30
6256;DHT22;3161;48.794;9.784;2023-02-28T01:45:29;-0.20;99.40
6256;DHT22;3161;48.794;9.784;2023-02-28T01:48:02;-0.20;99.50
6256;DHT22;3161;48.794;9.784;2023-02-28T01:50:34;-0.20;99.90
6256;DHT22;3161;48.794;9.784;2023-02-28T01:53:04;-0.20;99.90
6256;DHT22;3161;48.794;9.784;2023-02-28T01:55:32;-0.20;99.90
6256;DHT22;3161;48.794;9.784;2023-02-28T01:58:02;-0.20;99.90
6256;DHT22;3161;48.794;9.784;2023-02-28T02:00:30;-0.30;99.90
6256;DHT22;3161;48.794;9.784;2023-02-28T02:03:05;-0.30;99.90
6256;DHT22;3161;48.794;9.784;2023-02-28T02:05:30;-0.30;99.90
6256;DHT22;3161;48.794;9.784;2023-02-28T02:08:10;-0.30;99.90
6256;DHT22;3161;48.794;9.784;2023-02-28T02:10:39;-0.30;99.90
6256;DHT22;3161;48.794;9.784;2023-02-28T02:15:53;-0.30;99.90
6256;DHT22;3161;48.794;9.784;2023-02-28T02:18:28;-0.30;99.90
6256;DHT22;3161;48.794;9.784;2023-02-28T02:35:40;-0.40;99.90
6256;DHT22;3161;48.794;9.784;2023-02-28T02:38:06;-0.40;99.90
6256;DHT22;3161;48.794;9.784;2023-02-28T02:40:42;-0.40;99.90
6256;DHT22;3161;48.794;9.784;2023-02-28T02:43:19;-0.40;99.90
6256;DHT22;3161;48.794;9.784;2023-02-28T02:45:52;-0.40;99.90
6256;DHT22;3161;48.794;9.784;2023-02-28T02:48:24;-0.40;99.90
6256;DHT22;3161;48.794;9.784;2023-02-28T02:51:00;-0.40;99.90
6256;DHT22;3161;48.794;9.784;2023-02-28T02:53:34;-0.40;99.90
6256;DHT22;3161;48.794;9.784;2023-02-28T02:56:04;-0.40;99.90
6256;DHT22;3161;48.794;9.784;2023-02-28T02:58:37;-0.40;99.90
6256;DHT22;3161;48.794;9.784;2023-02-28T03:01:05;-0.40;99.90
6256;DHT22;3161;48.794;9.784;2023-02-28T03:03:33;-0.40;99.90
6256;DHT22;3161;48.794;9.784;2023-02-28T03:06:02;-0.30;99.90
6256;DHT22;3161;48.794;9.784;2023-02-28T03:08:36;-0.40;99.90
6256;DHT22;3161;48.794;9.784;2023-02-28T03:11:06;-0.40;99.90
6256;DHT22;3161;48.794;9.784;2023-02-28T03:17:21;-0.30;99.90
6256;DHT22;3161;48.794;9.784;2023-02-28T03:22:14;-0.30;99.90
6256;DHT22;3161;48.794;9.784;2023-02-28T03:25:06;-0.30;99.90
6256;DHT22;3161;48.794;9.784;2023-02-28T03:27:42;-0.30;99.90
6256;DHT22;3161;48.794;9.784;2023-02-28T03:30:25;-0.30;99.90
6256;DHT22;3161;48.794;9.784;2023-02-28T03:33:03;-0.30;99.90
6256;DHT22;3161;48.794;9.784;2023-02-28T03:35:31;-0.20;99.90
6256;DHT22;3161;48.794;9.784;2023-02-28T03:38:22;-0.20;99.90
6256;DHT22;3161;48.794;9.784;2023-02-28T03:40:51;-0.30;99.90
6256;DHT22;3161;48.794;9.784;2023-02-28T03:43:26;-0.20;99.90
6256;DHT22;3161;48.794;9.784;2023-02-28T03:45:50;-0.20;99.90
6256;DHT22;3161;48.794;9.784;2023-02-28T03:48:30;-0.20;99.90
6256;DHT22;3161;48.794;9.784;2023-02-28T03:50:56;-0.20;99.90
6256;DHT22;3161;48.794;9.784;2023-02-28T03:53:31;-0.10;99.90
6256;DHT22;3161;48.794;9.784;2023-02-28T03:56:05;-0.20;99.90
6256;DHT22;3161;48.794;9.784;2023-02-28T04:01:15;-0.20;99.90
6256;DHT22;3161;48.794;9.784;2023-02-28T04:03:39;-0.20;99.90
6256;DHT22;3161;48.794;9.784;2023-02-28T04:06:13;-0.10;99.90
6256;DHT22;3161;48.794;9.784;2023-02-28T04:08:37;-0.10;99.90
6256;DHT22;3161;48.794;9.784;2023-02-28T04:11:08;-0.10;99.90
6256;DHT22;3161;48.794;9.784;2023-02-28T04:13:35;-0.10;99.90
6256;DHT22;3161;48.794;9.784;2023-02-28T04:16:07;-0.10;99.90
6256;DHT22;3161;48.794;9.784;2023-02-28T04:18:41;-0.10;99.90
6256;DHT22;3161;48.794;9.784;2023-02-28T04:21:11;-0.10;99.90
6256;DHT22;3161;48.794;9.784;2023-02-28T04:23:39;0.00;99.90
6256;DHT22;3161;48.794;9.784;2023-02-28T04:26:07;-0.10;99.90
6256;DHT22;3161;48.794;9.784;2023-02-28T04:28:36;0.00;99.90
6256;DHT22;3161;48.794;9.784;2023-02-28T04:31:05;0.00;99.90
6256;DHT22;3161;48.794;9.784;2023-02-28T04:33:33;0.00;99.90
6256;DHT22;3161;48.794;9.784;2023-02-28T04:36:05;0.00;99.90
6256;DHT22;3161;48.794;9.784;2023-02-28T04:38:35;0.00;99.90
6256;DHT22;3161;48.794;9.784;2023-02-28T04:41:04;0.00;99.90
6256;DHT22;3161;48.794;9.784;2023-02-28T04:43:32;0.00;99.90
6256;DHT22;3161;48.794;9.784;2023-02-28T04:46:02;0.00;99.90
6256;DHT22;3161;48.794;9.784;2023-02-28T04:48:33;0.00;99.90
6256;DHT22;3161;48.794;9.784;2023-02-28T04:51:09;0.00;99.90
6256;DHT22;3161;48.794;9.784;2023-02-28T04:53:41;0.00;99.90
6256;DHT22;3161;48.794;9.784;2023-02-28T04:56:15;0.00;99.90
6256;DHT22;3161;48.794;9.784;2023-02-28T04:58:39;0.00;99.90
6256;DHT22;3161;48.794;9.784;2023-02-28T05:01:24;0.00;99.90
6256;DHT22;3161;48.794;9.784;2023-02-28T05:03:54;0.00;99.90
6256;DHT22;3161;48.794;9.784;2023-02-28T05:06:23;0.00;99.90
6256;DHT22;3161;48.794;9.784;2023-02-28T05:08:52;0.00;99.90
6256;DHT22;3161;48.794;9.784;2023-02-28T05:13:51;0.00;99.90
6256;DHT22;3161;48.794;9.784;2023-02-28T05:16:20;0.00;99.90
6256;DHT22;3161;48.794;9.784;2023-02-28T05:18:48;0.10;99.90
6256;DHT22;3161;48.794;9.784;2023-02-28T05:21:28;0.10;99.90
6256;DHT22;3161;48.794;9.784;2023-02-28T05:23:57;0.10;99.90
6256;DHT22;3161;48.794;9.784;2023-02-28T05:26:26;0.10;99.90
6256;DHT22;3161;48.794;9.784;2023-02-28T05:28:54;0.10;99.90
6256;DHT22;3161;48.794;9.784;2023-02-28T05:31:22;0.10;99.90
6256;DHT22;3161;48.794;9.784;2023-02-28T05:33:50;0.10;99.90
6256;DHT22;3161;48.794;9.784;2023-02-28T05:36:18;0.10;99.90
6256;DHT22;3161;48.794;9.784;2023-02-28T05:38:49;0.10;99.90
6256;DHT22;3161;48.794;9.784;2023-02-28T05:41:18;0.10;99.90
6256;DHT22;3161;48.794;9.784;2023-02-28T05:43:47;0.10;99.90
6256;DHT22;3161;48.794;9.784;2023-02-28T05:46:15;0.10;99.90
6256;DHT22;3161;48.794;9.784;2023-02-28T05:48:46;0.10;99.90
6256;DHT22;3161;48.794;9.784;2023-02-28T05:51:13;0.10;99.90
6256;DHT22;3161;48.794;9.784;2023-02-28T05:53:41;0.10;99.90
6256;DHT22;3161;48.794;9.784;2023-02-28T05:56:09;0.10;99.90
6256;DHT22;3161;48.794;9.784;2023-02-28T05:58:36;0.10;99.90
6256;DHT22;3161;48.794;9.784;2023-02-28T06:01:32;0.10;99.90
6256;DHT22;3161;48.794;9.784;2023-02-28T06:04:01;0.10;99.90
6256;DHT22;3161;48.794;9.784;2023-02-28T06:06:29;0.10;99.90
6256;DHT22;3161;48.794;9.784;2023-02-28T06:08:57;0.10;99.90
6256;DHT22;3161;48.794;9.784;2023-02-28T06:11:25;0.10;99.90
6256;DHT22;3161;48.794;9.784;2023-02-28T06:13:55;0.10;99.90
6256;DHT22;3161;48.794;9.784;2023-02-28T06:16:23;0.10;99.90
6256;DHT22;3161;48.794;9.784;2023-02-28T06:18:51;0.10;99.90
6256;DHT22;3161;48.794;9.784;2023-02-28T06:21:22;0.10;99.90
6256;DHT22;3161;48.794;9.784;2023-02-28T06:23:50;0.10;99.90
6256;DHT22;3161;48.794;9.784;2023-02-28T06:26:18;0.10;99.90
6256;DHT22;3161;48.794;9.784;2023-02-28T06:28:46;0.10;99.90
6256;DHT22;3161;48.794;9.784;2023-02-28T06:31:15;0.10;99.90
6256;DHT22;3161;48.794;9.784;2023-02-28T06:33:44;0.10;99.90
6256;DHT22;3161;48.794;9.784;2023-02-28T06:36:13;0.20;99.90
6256;DHT22;3161;48.794;9.784;2023-02-28T06:38:41;0.20;99.90
6256;DHT22;3161;48.794;9.784;2023-02-28T06:41:09;0.20;99.90
6256;DHT22;3161;48.794;9.784;2023-02-28T06:43:40;0.20;99.90
6256;DHT22;3161;48.794;9.784;2023-02-28T06:46:11;0.20;99.90
6256;DHT22;3161;48.794;9.784;2023-02-28T06:48:38;0.30;99.90
6256;DHT22;3161;48.794;9.784;2023-02-28T06:51:08;0.20;99.90
6256;DHT22;3161;48.794;9.784;2023-02-28T06:53:36;0.30;99.90
6256;DHT22;3161;48.794;9.784;2023-02-28T06:56:10;0.30;99.90
6256;DHT22;3161;48.794;9.784;2023-02-28T06:58:38;0.30;99.90
6256;DHT22;3161;48.794;9.784;2023-02-28T07:01:06;0.30;99.90
6256;DHT22;3161;48.794;9.784;2023-02-28T07:03:36;0.30;99.90
6256;DHT22;3161;48.794;9.784;2023-02-28T07:06:05;0.30;99.90
6256;DHT22;3161;48.794;9.784;2023-02-28T07:08:34;0.40;99.90
6256;DHT22;3161;48.794;9.784;2023-02-28T07:11:03;0.40;99.90
6256;DHT22;3161;48.794;9.784;2023-02-28T07:13:31;0.40;99.90
6256;DHT22;3161;48.794;9.784;2023-02-28T07:16:00;0.50;99.90
6256;DHT22;3161;48.794;9.784;2023-02-28T07:18:29;0.50;99.90
6256;DHT22;3161;48.794;9.784;2023-02-28T07:20:57;0.50;99.90
6256;DHT22;3161;48.794;9.784;2023-02-28T07:23:24;0.40;99.90
6256;DHT22;3161;48.794;9.784;2023-02-28T07:25:52;0.40;99.90
6256;DHT22;3161;48.794;9.784;2023-02-28T07:28:19;0.50;99.90
6256;DHT22;3161;48.794;9.784;2023-02-28T07:30:47;0.50;99.90
6256;DHT22;3161;48.794;9.784;2023-02-28T07:33:15;0.50;99.90
6256;DHT22;3161;48.794;9.784;2023-02-28T07:35:43;0.50;99.90
6256;DHT22;3161;48.794;9.784;2023-02-28T07:38:10;0.50;99.90
6256;DHT22;3161;48.794;9.784;2023-02-28T07:40:40;0.60;99.90
6256;DHT22;3161;48.794;9.784;2023-02-28T07:43:07;0.60;99.90
6256;DHT22;3161;48.794;9.784;2023-02-28T07:45:35;0.60;99.90
6256;DHT22;3161;48.794;9.784;2023-02-28T07:48:03;0.70;99.90
6256;DHT22;3161;48.794;9.784;2023-02-28T07:50:30;0.70;99.90
6256;DHT22;3161;48.794;9.784;2023-02-28T07:52:59;0.70;99.90
6256;DHT22;3161;48.794;9.784;2023-02-28T07:55:26;0.80;99.90
6256;DHT22;3161;48.794;9.784;2023-02-28T07:57:54;0.80;99.90
6256;DHT22;3161;48.794;9.784;2023-02-28T08:00:22;0.90;99.90
6256;DHT22;3161;48.794;9.784;2023-02-28T08:02:50;0.90;99.90
6256;DHT22;3161;48.794;9.784;2023-02-28T08:05:18;0.90;99.90
6256;DHT22;3161;48.794;9.784;2023-02-28T08:07:45;1.00;99.90
6256;DHT22;3161;48.794;9.784;2023-02-28T08:10:14;1.10;99.90
6256;DHT22;3161;48.794;9.784;2023-02-28T08:12:41;1.10;99.90
6256;DHT22;3161;48.794;9.784;2023-02-28T08:15:09;1.20;99.90
6256;DHT22;3161;48.794;9.784;2023-02-28T08:17:37;1.30;99.90
6256;DHT22;3161;48.794;9.784;2023-02-28T08:20:06;1.30;99.90
6256;DHT22;3161;48.794;9.784;2023-02-28T08:22:34;1.30;99.90
6256;DHT22;3161;48.794;9.784;2023-02-28T08:25:01;1.40;99.90
6256;DHT22;3161;48.794;9.784;2023-02-28T08:27:29;1.40;99.90
6256;DHT22;3161;48.794;9.784;2023-02-28T08:29:56;1.50;99.90
6256;DHT22;3161;48.794;9.784;2023-02-28T08:32:24;1.60;99.90
6256;DHT22;3161;48.794;9.784;2023-02-28T08:34:52;1.60;99.90
6256;DHT22;3161;48.794;9.784;2023-02-28T08:37:19;1.70;99.90
6256;DHT22;3161;48.794;9.784;2023-02-28T08:39:47;1.70;99.90
6256;DHT22;3161;48.794;9.784;2023-02-28T08:42:14;1.70;99.90
6256;DHT22;3161;48.794;9.784;2023-02-28T08:44:42;1.70;99.90
6256;DHT22;3161;48.794;9.784;2023-02-28T08:47:09;1.80;99.90
6256;DHT22;3161;48.794;9.784;2023-02-28T08:49:37;1.80;99.90
6256;DHT22;3161;48.794;9.784;2023-02-28T08:52:05;1.80;99.90
6256;DHT22;3161;48.794;9.784;2023-02-28T08:54:33;2.00;99.90
6256;DHT22;3161;48.794;9.784;2023-02-28T08:57:01;2.00;99.90
6256;DHT22;3161;48.794;9.784;2023-02-28T08:59:29;2.10;99.90
6256;DHT22;3161;48.794;9.784;2023-02-28T09:01:57;2.10;99.90
6256;DHT22;3161;48.794;9.784;2023-02-28T09:04:24;2.20;99.90
6256;DHT22;3161;48.794;9.784;2023-02-28T09:06:52;2.30;99.90
6256;DHT22;3161;48.794;9.784;2023-02-28T09:09:20;2.50;99.90
6256;DHT22;3161;48.794;9.784;2023-02-28T09:11:47;2.60;99.90
6256;DHT22;3161;48.794;9.784;2023-02-28T09:14:15;2.80;99.90
6256;DHT22;3161;48.794;9.784;2023-02-28T09:16:43;3.00;99.90
6256;DHT22;3161;48.794;9.784;2023-02-28T09:19:12;3.10;99.90
6256;DHT22;3161;48.794;9.784;2023-02-28T09:21:40;3.10;99.90
6256;DHT22;3161;48.794;9.784;2023-02-28T09:24:08;3.10;99.90
6256;DHT22;3161;48.794;9.784;2023-02-28T09:26:37;3.20;99.90
6256;DHT22;3161;48.794;9.784;2023-02-28T09:29:05;3.10;99.90
6256;DHT22;3161;48.794;9.784;2023-02-28T09:31:33;3.10;99.90
6256;DHT22;3161;48.794;9.784;2023-02-28T09:34:00;3.20;99.90
6256;DHT22;3161;48.794;9.784;2023-02-28T09:36:28;3.30;99.90
6256;DHT22;3161;48.794;9.784;2023-02-28T09:38:56;3.40;99.90
6256;DHT22;3161;48.794;9.784;2023-02-28T09:41:25;3.50;99.90
6256;DHT22;3161;48.794;9.784;2023-02-28T09:43:59;3.60;99.90
6256;DHT22;3161;48.794;9.784;2023-02-28T09:46:37;3.90;99.90
6256;DHT22;3161;48.794;9.784;2023-02-28T09:49:54;4.20;99.90
6256;DHT22;3161;48.794;9.784;2023-02-28T09:51:58;4.50;99.20
6256;DHT22;3161;48.794;9.784;2023-02-28T09:54:28;4.60;98.60
6256;DHT22;3161;48.794;9.784;2023-02-28T09:57:00;4.80;98.50
6256;DHT22;3161;48.794;9.784;2023-02-28T10:05:28;5.40;97.30
6256;DHT22;3161;48.794;9.784;2023-02-28T10:10:39;5.70;94.90
6256;DHT22;3161;48.794;9.784;2023-02-28T10:13:17;5.90;95.60
6256;DHT22;3161;48.794;9.784;2023-02-28T10:15:42;6.00;95.10
6256;DHT22;3161;48.794;9.784;2023-02-28T10:18:12;6.10;95.00
6256;DHT22;3161;48.794;9.784;2023-02-28T10:20:59;6.10;94.00
6256;DHT22;3161;48.794;9.784;2023-02-28T10:23:32;6.20;94.00
6256;DHT22;3161;48.794;9.784;2023-02-28T10:26:09;6.60;94.60
6256;DHT22;3161;48.794;9.784;2023-02-28T10:28:34;6.80;93.60
6256;DHT22;3161;48.794;9.784;2023-02-28T10:31:02;7.00;94.90
6256;DHT22;3161;48.794;9.784;2023-02-28T10:33:33;7.30;94.70
6256;DHT22;3161;48.794;9.784;2023-02-28T10:36:02;7.50;91.20
6256;DHT22;3161;48.794;9.784;2023-02-28T10:38:36;7.30;90.90
6256;DHT22;3161;48.794;9.784;2023-02-28T10:41:12;7.10;90.90
6256;DHT22;3161;48.794;9.784;2023-02-28T10:43:42;7.10;90.80
6256;DHT22;3161;48.794;9.784;2023-02-28T10:46:13;7.20;90.70
6256;DHT22;3161;48.794;9.784;2023-02-28T10:48:50;7.10;90.00
6256;DHT22;3161;48.794;9.784;2023-02-28T10:51:19;6.80;89.80
6256;DHT22;3161;48.794;9.784;2023-02-28T10:53:51;6.70;90.70
6256;DHT22;3161;48.794;9.784;2023-02-28T10:56:22;6.60;90.70
6256;DHT22;3161;48.794;9.784;2023-02-28T10:59:40;6.60;91.30
6256;DHT22;3161;48.794;9.784;2023-02-28T11:04:01;6.90;91.50
6256;DHT22;3161;48.794;9.784;2023-02-28T11:06:33;7.00;91.20
6256;DHT22;3161;48.794;9.784;2023-02-28T11:09:19;7.20;92.30
6256;DHT22;3161;48.794;9.784;2023-02-28T11:11:45;7.50;90.30
6256;DHT22;3161;48.794;9.784;2023-02-28T11:14:25;7.60;90.60
6256;DHT22;3161;48.794;9.784;2023-02-28T11:16:54;7.80;90.60
6256;DHT22;3161;48.794;9.784;2023-02-28T11:19:38;8.20;90.30
6256;DHT22;3161;48.794;9.784;2023-02-28T11:22:02;8.60;90.00
6256;DHT22;3161;48.794;9.784;2023-02-28T11:24:36;8.80;90.00
6256;DHT22;3161;48.794;9.784;2023-02-28T11:27:04;9.00;86.30
6256;DHT22;3161;48.794;9.784;2023-02-28T11:29:33;9.10;87.40
6256;DHT22;3161;48.794;9.784;2023-02-28T11:34:37;9.30;85.10
6256;DHT22;3161;48.794;9.784;2023-02-28T11:37:15;9.50;84.10
6256;DHT22;3161;48.794;9.784;2023-02-28T11:39:43;9.50;84.00
6256;DHT22;3161;48.794;9.784;2023-02-28T11:42:32;9.40;82.90
6256;DHT22;3161;48.794;9.784;2023-02-28T11:45:19;9.50;85.30
6256;DHT22;3161;48.794;9.784;2023-02-28T11:53:01;10.10;80.40
6256;DHT22;3161;48.794;9.784;2023-02-28T12:00:58;10.60;76.80
6256;DHT22;3161;48.794;9.784;2023-02-28T12:09:28;11.10;73.70
6256;DHT22;3161;48.794;9.784;2023-02-28T12:12:58;11.30;73.80
6256;DHT22;3161;48.794;9.784;2023-02-28T12:14:53;11.30;72.10
6256;DHT22;3161;48.794;9.784;2023-02-28T12:17:35;11.50;72.80
6256;DHT22;3161;48.794;9.784;2023-02-28T12:20:17;11.80;68.40
6256;DHT22;3161;48.794;9.784;2023-02-28T12:22:49;12.00;71.20
6256;DHT22;3161;48.794;9.784;2023-02-28T12:28:08;12.60;66.30
6256;DHT22;3161;48.794;9.784;2023-02-28T12:30:38;13.00;65.20
6256;DHT22;3161;48.794;9.784;2023-02-28T12:33:09;13.50;65.00
6256;DHT22;3161;48.794;9.784;2023-02-28T12:38:27;13.90;60.60
6256;DHT22;3161;48.794;9.784;2023-02-28T12:41:10;14.10;60.30
6256;DHT22;3161;48.794;9.784;2023-02-28T12:43:37;14.10;59.10
6256;DHT22;3161;48.794;9.784;2023-02-28T12:46:11;14.10;58.10
6256;DHT22;3161;48.794;9.784;2023-02-28T12:48:48;13.90;57.30
6256;DHT22;3161;48.794;9.784;2023-02-28T12:51:16;13.70;57.60
6256;DHT22;3161;48.794;9.784;2023-02-28T12:54:12;13.80;58.10
6256;DHT22;3161;48.794;9.784;2023-02-28T12:56:43;13.90;57.80
6256;DHT22;3161;48.794;9.784;2023-02-28T13:07:24;14.10;55.40
6256;DHT22;3161;48.794;9.784;2023-02-28T13:09:53;14.20;57.60
6256;DHT22;3161;48.794;9.784;2023-02-28T13:12:22;14.40;57.00
6256;DHT22;3161;48.794;9.784;2023-02-28T13:14:51;14.70;53.30
6256;DHT22;3161;48.794;9.784;2023-02-28T13:17:21;14.90;54.30
6256;DHT22;3161;48.794;9.784;2023-02-28T13:22:43;15.30;52.50
6256;DHT22;3161;48.794;9.784;2023-02-28T13:27:53;16.40;51.00
6256;DHT22;3161;48.794;9.784;2023-02-28T13:33:33;17.20;48.50
6256;DHT22;3161;48.794;9.784;2023-02-28T13:36:07;17.80;46.30
6256;DHT22;3161;48.794;9.784;2023-02-28T13:38:42;18.40;45.40
6256;DHT22;3161;48.794;9.784;2023-02-28T14:00:43;18.80;40.20
6256;DHT22;3161;48.794;9.784;2023-02-28T14:05:40;16.90;42.70
6256;DHT22;3161;48.794;9.784;2023-02-28T14:08:22;15.50;44.80
6256;DHT22;3161;48.794;9.784;2023-02-28T14:11:02;14.20;45.10
6256;DHT22;3161;48.794;9.784;2023-02-28T14:13:45;13.30;47.20
6256;DHT22;3161;48.794;9.784;2023-02-28T14:16:20;12.60;48.70
6256;DHT22;3161;48.794;9.784;2023-02-28T14:19:09;11.90;49.90
6256;DHT22;3161;48.794;9.784;2023-02-28T14:21:34;11.30;51.20
6256;DHT22;3161;48.794;9.784;2023-02-28T14:24:09;10.90;52.90
6256;DHT22;3161;48.794;9.784;2023-02-28T14:26:55;10.60;53.60
6256;DHT22;3161;48.794;9.784;2023-02-28T14:29:38;10.40;54.00
6256;DHT22;3161;48.794;9.784;2023-02-28T14:34:54;10.10;54.90
6256;DHT22;3161;48.794;9.784;2023-02-28T14:37:33;10.20;54.70
6256;DHT22;3161;48.794;9.784;2023-02-28T14:40:01;11.00;54.70
6256;DHT22;3161;48.794;9.784;2023-02-28T14:42:33;12.60;51.70
6256;DHT22;3161;48.794;9.784;2023-02-28T14:45:02;13.90;50.30
6256;DHT22;3161;48.794;9.784;2023-02-28T14:47:31;15.00;47.20
6256;DHT22;3161;48.794;9.784;2023-02-28T14:50:01;15.90;45.70
6256;DHT22;3161;48.794;9.784;2023-02-28T14:52:31;16.40;44.80
6256;DHT22;3161;48.794;9.784;2023-02-28T14:55:05;16.80;44.10
6256;DHT22;3161;48.794;9.784;2023-02-28T14:57:40;16.90;43.50
6256;DHT22;3161;48.794;9.784;2023-02-28T15:00:18;17.40;43.50
6256;DHT22;3161;48.794;9.784;2023-02-28T15:02:44;18.00;42.80
6256;DHT22;3161;48.794;9.784;2023-02-28T15:05:22;17.90;41.60
6256;DHT22;3161;48.794;9.784;2023-02-28T15:07:47;17.90;41.30
6256;DHT22;3161;48.794;9.784;2023-02-28T15:10:21;17.90;41.30
6256;DHT22;3161;48.794;9.784;2023-02-28T15:21:07;16.70;42.30
6256;DHT22;3161;48.794;9.784;2023-02-28T15:23:36;16.20;42.70
6256;DHT22;3161;48.794;9.784;2023-02-28T15:26:05;15.70;43.10
6256;DHT22;3161;48.794;9.784;2023-02-28T15:28:33;15.50;44.20
6256;DHT22;3161;48.794;9.784;2023-02-28T15:31:03;15.40;44.20
6256;DHT22;3161;48.794;9.784;2023-02-28T15:33:33;15.30;44.10
6256;DHT22;3161;48.794;9.784;2023-02-28T15:36:17;15.20;44.30
6256;DHT22;3161;48.794;9.784;2023-02-28T15:38:51;15.00;44.10
6256;DHT22;3161;48.794;9.784;2023-02-28T15:41:31;14.90;44.90
6256;DHT22;3161;48.794;9.784;2023-02-28T15:44:23;14.70;44.90
6256;DHT22;3161;48.794;9.784;2023-02-28T15:46:55;14.10;45.40
6256;DHT22;3161;48.794;9.784;2023-02-28T15:49:23;13.10;45.90
6256;DHT22;3161;48.794;9.784;2023-02-28T15:51:53;12.00;47.30
6256;DHT22;3161;48.794;9.784;2023-02-28T15:54:33;11.20;49.20
6256;DHT22;3161;48.794;9.784;2023-02-28T15:57:00;10.50;50.90
6256;DHT22;3161;48.794;9.784;2023-02-28T15:59:29;9.90;53.30
6256;DHT22;3161;48.794;9.784;2023-02-28T16:02:50;9.50;55.00
6256;DHT22;3161;48.794;9.784;2023-02-28T16:04:33;9.10;55.40
6256;DHT22;3161;48.794;9.784;2023-02-28T16:07:05;8.70;56.80
6256;DHT22;3161;48.794;9.784;2023-02-28T16:09:33;8.40;57.90
6256;DHT22;3161;48.794;9.784;2023-02-28T16:12:02;8.10;58.30
6256;DHT22;3161;48.794;9.784;2023-02-28T16:14:31;7.80;58.30
6256;DHT22;3161;48.794;9.784;2023-02-28T16:17:07;7.60;59.40
6256;DHT22;3161;48.794;9.784;2023-02-28T16:19:38;7.40;60.30
6256;DHT22;3161;48.794;9.784;2023-02-28T16:22:05;7.20;61.50
6256;DHT22;3161;48.794;9.784;2023-02-28T16:24:33;6.90;61.60
6256;DHT22;3161;48.794;9.784;2023-02-28T16:27:00;6.80;62.40
6256;DHT22;3161;48.794;9.784;2023-02-28T16:29:31;6.60;62.70
6256;DHT22;3161;48.794;9.784;2023-02-28T16:32:00;6.50;63.60
6256;DHT22;3161;48.794;9.784;2023-02-28T16:34:29;6.30;64.60
6256;DHT22;3161;48.794;9.784;2023-02-28T16:36:56;6.20;65.20
6256;DHT22;3161;48.794;9.784;2023-02-28T16:39:25;6.10;65.80
6256;DHT22;3161;48.794;9.784;2023-02-28T16:41:53;5.90;65.60
6256;DHT22;3161;48.794;9.784;2023-02-28T16:44:29;5.90;67.20
6256;DHT22;3161;48.794;9.784;2023-02-28T16:46:59;5.80;67.80
6256;DHT22;3161;48.794;9.784;2023-02-28T16:49:26;5.60;68.10
6256;DHT22;3161;48.794;9.784;2023-02-28T16:51:54;5.60;68.80
6256;DHT22;3161;48.794;9.784;2023-02-28T16:54:21;5.50;69.60
6256;DHT22;3161;48.794;9.784;2023-02-28T16:56:49;5.40;70.00
6256;DHT22;3161;48.794;9.784;2023-02-28T16:59:21;5.40;69.60
6256;DHT22;3161;48.794;9.784;2023-02-28T17:01:48;5.20;69.90
6256;DHT22;3161;48.794;9.784;2023-02-28T17:04:16;5.20;70.30
6256;DHT22;3161;48.794;9.784;2023-02-28T17:06:44;5.10;70.60
6256;DHT22;3161;48.794;9.784;2023-02-28T17:09:19;5.00;72.60
6256;DHT22;3161;48.794;9.784;2023-02-28T17:11:48;4.90;72.60
6256;DHT22;3161;48.794;9.784;2023-02-28T17:14:16;4.80;73.30
6256;DHT22;3161;48.794;9.784;2023-02-28T17:16:44;4.80;74.80
6256;DHT22;3161;48.794;9.784;2023-02-28T17:19:13;4.70;73.90
6256;DHT22;3161;48.794;9.784;2023-02-28T17:21:42;4.60;74.80
6256;DHT22;3161;48.794;9.784;2023-02-28T17:24:11;4.60;75.10
6256;DHT22;3161;48.794;9.784;2023-02-28T17:26:40;4.50;75.10
6256;DHT22;3161;48.794;9.784;2023-02-28T17:29:16;4.40;75.40
6256;DHT22;3161;48.794;9.784;2023-02-28T17:31:44;4.40;75.10
6256;DHT22;3161;48.794;9.784;2023-02-28T17:34:12;4.30;76.30
6256;DHT22;3161;48.794;9.784;2023-02-28T17:36:41;4.20;76.20
6256;DHT22;3161;48.794;9.784;2023-02-28T17:39:09;4.10;76.30
6256;DHT22;3161;48.794;9.784;2023-02-28T17:41:41;4.00;76.70
6256;DHT22;3161;48.794;9.784;2023-02-28T17:44:09;4.00;77.40
6256;DHT22;3161;48.794;9.784;2023-02-28T17:46:41;3.90;77.40
6256;DHT22;3161;48.794;9.784;2023-02-28T17:49:09;3.80;78.60
6256;DHT22;3161;48.794;9.784;2023-02-28T17:51:37;3.80;79.30
6256;DHT22;3161;48.794;9.784;2023-02-28T17:54:04;3.70;79.50
6256;DHT22;3161;48.794;9.784;2023-02-28T17:56:33;3.70;80.50
6256;DHT22;3161;48.794;9.784;2023-02-28T17:59:00;3.60;81.00
6256;DHT22;3161;48.794;9.784;2023-02-28T18:01:28;3.60;81.30
6256;DHT22;3161;48.794;9.784;2023-02-28T18:03:56;3.50;82.40
6256;DHT22;3161;48.794;9.784;2023-02-28T18:06:29;3.50;82.70
6256;DHT22;3161;48.794;9.784;2023-02-28T18:08:57;3.40;83.60
6256;DHT22;3161;48.794;9.784;2023-02-28T18:11:25;3.40;84.10
6256;DHT22;3161;48.794;9.784;2023-02-28T18:13:54;3.30;84.90
6256;DHT22;3161;48.794;9.784;2023-02-28T18:16:23;3.20;85.60
6256;DHT22;3161;48.794;9.784;2023-02-28T18:18:50;3.20;86.00
6256;DHT22;3161;48.794;9.784;2023-02-28T18:21:18;3.10;86.50
6256;DHT22;3161;48.794;9.784;2023-02-28T18:23:46;3.00;87.40
6256;DHT22;3161;48.794;9.784;2023-02-28T18:26:15;3.00;88.20
6256;DHT22;3161;48.794;9.784;2023-02-28T18:28:43;2.90;88.50